createdAt,value
2017-05-12T00:00:45.016Z,0
2017-05-12T00:01:55.365Z,0
2017-05-12T00:03:05.441Z,0
2017-05-12T00:04:15.781Z,0
2017-05-12T00:05:26.122Z,0
2017-05-12T00:06:36.466Z,0
2017-05-12T00:07:46.868Z,0
2017-05-12T00:08:56.902Z,0
2017-05-12T00:10:07.264Z,0
2017-05-12T00:11:16.985Z,0
2017-05-12T00:12:27.026Z,0
2017-05-12T00:13:37.393Z,0
2017-05-12T00:14:47.748Z,0
2017-05-12T00:15:57.783Z,0
2017-05-12T00:17:08.142Z,0
2017-05-12T00:18:18.483Z,0
2017-05-12T00:19:28.518Z,0
2017-05-12T00:20:38.552Z,0
2017-05-12T00:21:48.276Z,0
2017-05-12T00:22:58.640Z,0
2017-05-12T00:24:08.675Z,0
2017-05-12T00:25:18.710Z,0
2017-05-12T00:26:28.738Z,0
2017-05-12T00:27:38.770Z,0
2017-05-12T00:28:49.130Z,0
2017-05-12T00:29:59.505Z,0
2017-05-12T00:31:09.539Z,0
2017-05-12T00:32:19.883Z,0
2017-05-12T00:33:30.233Z,0
2017-05-12T00:34:39.955Z,0
2017-05-12T00:35:50.301Z,0
2017-05-12T00:37:00.385Z,0
2017-05-12T00:38:10.411Z,0
2017-05-12T00:39:20.756Z,0
2017-05-12T00:40:30.783Z,0
2017-05-12T00:41:41.141Z,0
2017-05-12T00:42:51.541Z,0
2017-05-12T00:44:01.582Z,0
2017-05-12T00:45:11.940Z,0
2017-05-12T00:46:21.666Z,0
2017-05-12T00:47:31.700Z,0
2017-05-12T00:48:41.737Z,0
2017-05-12T00:49:51.457Z,0
2017-05-12T00:51:01.169Z,0
2017-05-12T00:52:11.516Z,0
2017-05-12T00:53:21.857Z,0
2017-05-12T00:54:32.199Z,0
2017-05-12T00:55:41.927Z,0
2017-05-12T00:56:52.282Z,0
2017-05-12T00:58:02.318Z,0
2017-05-12T00:59:12.422Z,0
2017-05-12T01:00:22.774Z,0
2017-05-12T01:01:33.114Z,0
2017-05-12T01:02:43.461Z,0
2017-05-12T01:03:53.804Z,0
2017-05-12T01:05:04.175Z,0
2017-05-12T01:06:14.524Z,0
2017-05-12T01:07:24.875Z,0
2017-05-12T01:08:35.225Z,0
2017-05-12T01:09:45.284Z,0
2017-05-12T01:10:55.324Z,0
2017-05-12T01:12:05.379Z,0
2017-05-12T01:13:15.744Z,0
2017-05-12T01:14:25.782Z,0
2017-05-12T01:15:36.192Z,0
2017-05-12T01:16:46.550Z,0
2017-05-12T01:17:56.588Z,0
2017-05-12T01:19:06.962Z,0
2017-05-12T01:20:17.373Z,0
2017-05-12T01:21:27.750Z,0
2017-05-12T01:22:38.107Z,0
2017-05-12T01:23:48.168Z,0
2017-05-12T01:24:58.208Z,0
2017-05-12T01:26:08.246Z,0
2017-05-12T01:27:18.604Z,0
2017-05-12T01:28:28.959Z,0
2017-05-12T01:29:39.004Z,0
2017-05-12T01:30:49.034Z,0
2017-05-12T01:31:58.758Z,0
2017-05-12T01:33:08.811Z,0
2017-05-12T01:34:19.164Z,0
2017-05-12T01:35:29.506Z,0
2017-05-12T01:36:39.553Z,0
2017-05-12T01:37:49.919Z,0
2017-05-12T01:39:00.273Z,0
2017-05-12T01:40:10.633Z,0
2017-05-12T01:41:20.973Z,0
2017-05-12T01:42:31.321Z,0
2017-05-12T01:43:41.702Z,0
2017-05-12T01:44:52.040Z,0
2017-05-12T01:46:02.386Z,0
2017-05-12T01:47:12.449Z,0
2017-05-12T01:48:22.785Z,0
2017-05-12T01:49:32.845Z,0
2017-05-12T01:50:43.202Z,0
2017-05-12T01:51:53.251Z,0
2017-05-12T01:53:02.986Z,0
2017-05-12T01:54:13.340Z,0
2017-05-12T01:55:23.722Z,0
2017-05-12T01:56:34.070Z,0
2017-05-12T01:57:44.129Z,0
2017-05-12T01:58:54.517Z,0
2017-05-12T02:00:04.878Z,0
2017-05-12T02:01:15.240Z,0
2017-05-12T02:02:25.588Z,0
2017-05-12T02:03:35.934Z,0
2017-05-12T02:04:46.299Z,0
2017-05-12T02:05:56.342Z,0
2017-05-12T02:07:06.692Z,0
2017-05-12T02:08:17.046Z,0
2017-05-12T02:09:27.070Z,0
2017-05-12T02:10:37.418Z,0
2017-05-12T02:11:47.466Z,0
2017-05-12T02:12:57.848Z,0
2017-05-12T02:14:07.888Z,0
2017-05-12T02:15:18.232Z,0
2017-05-12T02:16:28.633Z,0
2017-05-12T02:17:38.975Z,0
2017-05-12T02:18:49.328Z,0
2017-05-12T02:19:59.694Z,0
2017-05-12T02:21:10.047Z,0
2017-05-12T02:22:20.407Z,0
2017-05-12T02:23:30.763Z,0
2017-05-12T02:24:40.799Z,0
2017-05-12T02:25:51.182Z,0
2017-05-12T02:27:01.227Z,0
2017-05-12T02:28:11.625Z,0
2017-05-12T02:29:21.978Z,0
2017-05-12T02:30:32.341Z,0
2017-05-12T02:31:42.687Z,0
2017-05-12T02:32:53.061Z,0
2017-05-12T02:34:03.404Z,0
2017-05-12T02:35:13.768Z,0
2017-05-12T02:36:24.108Z,0
2017-05-12T02:37:34.144Z,0
2017-05-12T02:38:43.876Z,0
2017-05-12T02:39:54.234Z,0
2017-05-12T02:41:04.285Z,0
2017-05-12T02:42:14.633Z,0
2017-05-12T02:43:24.667Z,0
2017-05-12T02:44:35.035Z,0
2017-05-12T02:45:45.436Z,0
2017-05-12T02:46:55.800Z,0
2017-05-12T02:48:06.161Z,4
2017-05-12T02:49:16.519Z,4
2017-05-12T02:50:26.856Z,4
2017-05-12T02:51:36.582Z,0
2017-05-12T02:52:46.625Z,0
2017-05-12T02:53:56.984Z,4
2017-05-12T02:55:07.357Z,4
2017-05-12T02:56:17.096Z,4
2017-05-12T02:57:27.452Z,4
2017-05-12T02:58:37.792Z,8
2017-05-12T02:59:48.138Z,8
2017-05-12T03:00:58.486Z,8
2017-05-12T03:32:50.782Z,172
2017-05-12T03:34:00.813Z,180
2017-05-12T03:35:10.529Z,192
2017-05-12T03:36:20.591Z,200
2017-05-12T03:37:30.939Z,216
2017-05-12T03:38:41.278Z,232
2017-05-12T03:39:51.674Z,244
2017-05-12T03:41:02.017Z,252
2017-05-12T03:42:12.371Z,260
2017-05-12T03:43:22.413Z,272
2017-05-12T03:44:32.507Z,288
2017-05-12T03:45:42.543Z,304
2017-05-12T03:46:52.887Z,316
2017-05-12T03:48:03.231Z,336
2017-05-12T03:49:13.275Z,352
2017-05-12T03:50:23.639Z,368
2017-05-12T03:51:34.014Z,388
2017-05-12T03:52:44.375Z,404
2017-05-12T03:53:54.722Z,420
2017-05-12T03:55:05.062Z,444
2017-05-12T03:56:15.419Z,464
2017-05-12T03:57:25.465Z,484
2017-05-12T03:58:35.518Z,516
2017-05-12T03:59:45.872Z,548
2017-05-12T04:00:56.257Z,580
2017-05-12T04:02:06.360Z,616
2017-05-12T04:03:16.419Z,648
2017-05-12T04:04:26.773Z,680
2017-05-12T04:05:37.123Z,716
2017-05-12T04:06:47.161Z,756
2017-05-12T04:07:57.509Z,800
2017-05-12T04:09:07.555Z,852
2017-05-12T04:10:17.946Z,904
2017-05-12T04:11:28.289Z,956
2017-05-12T04:12:38.630Z,1008
2017-05-12T04:13:49.028Z,1060
2017-05-12T04:14:59.075Z,1112
2017-05-12T04:16:09.103Z,1176
2017-05-12T04:17:19.456Z,1236
2017-05-12T04:18:29.811Z,1312
2017-05-12T04:19:40.172Z,1388
2017-05-12T04:20:50.206Z,1468
2017-05-12T04:22:00.246Z,1560
2017-05-12T04:23:10.612Z,1660
2017-05-12T04:24:20.961Z,1760
2017-05-12T04:25:31.325Z,1868
2017-05-12T04:26:41.369Z,1984
2017-05-12T04:27:51.441Z,2100
2017-05-12T04:29:01.833Z,2208
2017-05-12T04:30:11.892Z,2300
2017-05-12T04:31:21.616Z,2376
2017-05-12T04:32:31.982Z,2448
2017-05-12T04:33:42.335Z,2528
2017-05-12T04:34:52.693Z,2620
2017-05-12T04:36:02.745Z,2716
2017-05-12T04:37:12.785Z,2848
2017-05-12T04:38:22.863Z,2948
2017-05-12T04:39:33.235Z,3084
2017-05-12T04:40:43.596Z,3200
2017-05-12T04:41:53.627Z,3548
2017-05-12T04:43:03.983Z,4196
2017-05-12T04:44:14.346Z,5072
2017-05-12T04:45:24.376Z,7100
2017-05-12T04:46:34.747Z,8656
2017-05-12T04:47:45.132Z,10320
2017-05-12T04:48:55.508Z,11764
2017-05-12T04:50:05.871Z,11480
2017-05-12T04:51:16.233Z,11356
2017-05-12T04:52:26.638Z,11304
2017-05-12T04:53:36.691Z,10848
2017-05-12T04:54:46.428Z,11704
2017-05-12T04:55:56.782Z,11132
2017-05-12T04:57:06.831Z,9772
2017-05-12T04:58:17.180Z,10412
2017-05-12T04:59:27.534Z,9624
2017-05-12T05:00:37.897Z,9780
2017-05-12T05:01:48.261Z,9080
2017-05-12T05:02:58.619Z,8424
2017-05-12T05:04:08.978Z,6276
2017-05-12T05:05:19.018Z,7308
2017-05-12T05:06:29.434Z,5336
2017-05-12T05:07:39.800Z,4704
2017-05-12T05:08:50.163Z,4400
2017-05-12T05:10:00.260Z,3956
2017-05-12T05:11:10.627Z,3704
2017-05-12T05:12:20.664Z,3660
2017-05-12T05:13:31.015Z,3756
2017-05-12T05:14:41.419Z,3840
2017-05-12T05:15:51.765Z,3956
2017-05-12T05:17:02.137Z,4152
2017-05-12T05:18:12.237Z,4556
2017-05-12T05:19:22.302Z,5372
2017-05-12T05:20:32.649Z,6616
2017-05-12T05:21:42.998Z,8036
2017-05-12T05:22:53.368Z,9732
2017-05-12T05:24:03.811Z,7524
2017-05-12T05:25:14.196Z,5372
2017-05-12T05:26:24.574Z,5088
2017-05-12T05:27:34.621Z,5024
2017-05-12T05:28:44.675Z,4992
2017-05-12T05:29:55.042Z,4944
2017-05-12T05:31:05.090Z,4912
2017-05-12T05:32:15.137Z,4872
2017-05-12T05:33:24.861Z,4852
2017-05-12T05:34:34.607Z,4856
2017-05-12T05:35:44.958Z,4900
2017-05-12T05:36:55.313Z,5000
2017-05-12T05:38:05.662Z,5188
2017-05-12T05:39:16.011Z,5416
2017-05-12T05:40:26.043Z,5708
2017-05-12T05:41:36.409Z,6020
2017-05-12T05:42:46.749Z,6392
2017-05-12T05:43:57.109Z,13288
2017-05-12T05:45:07.141Z,15840
2017-05-12T05:46:17.497Z,15040
2017-05-12T05:47:27.862Z,13508
2017-05-12T05:48:38.219Z,9440
2017-05-12T05:49:48.298Z,13684
2017-05-12T05:50:58.651Z,8596
2017-05-12T05:52:08.992Z,7624
2017-05-12T05:53:19.086Z,9656
2017-05-12T05:54:29.141Z,12620
2017-05-12T05:55:39.501Z,10388
2017-05-12T05:56:49.864Z,10292
2017-05-12T05:57:59.912Z,7364
2017-05-12T05:59:10.312Z,7024
2017-05-12T06:00:20.686Z,6824
2017-05-12T06:01:31.036Z,6552
2017-05-12T06:02:41.380Z,6256
2017-05-12T06:03:51.455Z,5900
2017-05-12T06:05:01.802Z,5596
2017-05-12T06:06:11.846Z,5356
2017-05-12T06:07:22.211Z,5192
2017-05-12T06:08:32.607Z,5108
2017-05-12T06:09:42.992Z,5116
2017-05-12T06:10:53.349Z,5216
2017-05-12T06:12:03.710Z,5392
2017-05-12T06:13:13.750Z,5596
2017-05-12T06:14:24.107Z,5824
2017-05-12T06:15:34.486Z,5996
2017-05-12T06:16:44.844Z,6048
2017-05-12T06:17:54.922Z,6000
2017-05-12T06:19:05.297Z,5900
2017-05-12T06:20:15.649Z,5820
2017-05-12T06:21:25.707Z,5796
2017-05-12T06:22:35.745Z,5864
2017-05-12T06:23:46.104Z,5968
2017-05-12T06:24:56.452Z,6048
2017-05-12T06:26:06.527Z,6036
2017-05-12T06:27:16.568Z,5968
2017-05-12T06:28:26.670Z,5896
2017-05-12T06:29:37.028Z,5812
2017-05-12T06:30:47.395Z,5720
2017-05-12T06:31:57.775Z,5620
2017-05-12T06:33:08.133Z,5576
2017-05-12T06:34:18.586Z,5616
2017-05-12T06:35:28.645Z,5712
2017-05-12T06:36:38.755Z,5816
2017-05-12T06:37:48.839Z,5892
2017-05-12T06:38:59.209Z,5960
2017-05-12T06:40:09.629Z,6012
2017-05-12T06:41:19.995Z,6044
2017-05-12T06:42:30.032Z,6072
2017-05-12T06:43:40.403Z,6140
2017-05-12T06:44:50.764Z,6256
2017-05-12T06:46:00.824Z,6400
2017-05-12T06:47:11.187Z,6532
2017-05-12T06:48:21.550Z,6620
2017-05-12T06:49:31.948Z,6668
2017-05-12T06:50:42.306Z,6708
2017-05-12T06:51:52.679Z,6788
2017-05-12T06:53:02.825Z,6880
2017-05-12T06:54:13.199Z,6920
2017-05-12T06:55:23.581Z,6900
2017-05-12T06:56:33.624Z,6804
2017-05-12T06:57:44.013Z,6664
2017-05-12T06:58:54.380Z,6572
2017-05-12T07:00:04.754Z,6500
2017-05-12T07:01:14.496Z,6424
2017-05-12T07:02:24.857Z,6304
2017-05-12T07:03:35.268Z,6108
2017-05-12T07:04:45.653Z,5900
2017-05-12T07:05:56.036Z,5740
2017-05-12T07:07:06.397Z,5684
2017-05-12T07:08:16.768Z,5784
2017-05-12T07:09:27.154Z,5988
2017-05-12T07:10:37.507Z,6244
2017-05-12T07:11:47.879Z,6332
2017-05-12T07:12:58.255Z,6584
2017-05-12T07:14:08.314Z,7232
2017-05-12T07:15:18.672Z,8264
2017-05-12T07:16:29.065Z,8176
2017-05-12T07:17:39.439Z,9220
2017-05-12T07:18:49.828Z,9392
2017-05-12T07:19:59.917Z,9716
2017-05-12T07:21:09.975Z,8904
2017-05-12T07:22:20.333Z,9144
2017-05-12T07:23:30.388Z,8764
2017-05-12T07:24:40.466Z,8664
2017-05-12T07:25:50.882Z,8496
2017-05-12T07:27:01.238Z,8400
2017-05-12T07:28:11.307Z,8348
2017-05-12T07:29:21.350Z,8280
2017-05-12T07:30:31.098Z,8156
2017-05-12T07:31:41.514Z,8024
2017-05-12T07:32:51.255Z,7896
2017-05-12T07:34:01.302Z,7780
2017-05-12T07:35:11.658Z,7732
2017-05-12T07:36:22.034Z,7740
2017-05-12T07:37:32.426Z,7704
2017-05-12T07:38:42.856Z,7600
2017-05-12T07:39:52.297Z,7548
2017-05-12T07:41:02.692Z,7508
2017-05-12T07:42:13.060Z,7492
2017-05-12T07:43:23.440Z,7576
2017-05-12T07:44:33.888Z,7684
2017-05-12T07:45:44.306Z,7828
2017-05-12T07:46:54.368Z,7984
2017-05-12T07:48:04.749Z,8088
2017-05-12T07:49:14.795Z,8220
2017-05-12T07:50:25.226Z,8420
2017-05-12T07:51:35.599Z,8652
2017-05-12T07:52:45.963Z,9572
2017-05-12T07:53:56.332Z,9632
2017-05-12T07:55:06.719Z,8880
2017-05-12T07:56:17.082Z,8740
2017-05-12T07:57:27.135Z,8644
2017-05-12T07:58:36.889Z,8772
2017-05-12T07:59:47.267Z,8776
2017-05-12T08:00:57.665Z,8380
2017-05-12T08:02:08.035Z,8396
2017-05-12T08:03:18.426Z,8388
2017-05-12T08:04:28.806Z,8576
2017-05-12T08:05:39.167Z,8616
2017-05-12T08:06:49.619Z,8960
2017-05-12T08:08:00.078Z,9464
2017-05-12T08:09:09.837Z,9232
2017-05-12T08:10:20.217Z,9240
2017-05-12T08:11:30.581Z,8964
2017-05-12T08:12:41.171Z,8920
2017-05-12T08:13:51.542Z,8556
2017-05-12T08:15:01.954Z,9160
2017-05-12T08:58:07.559Z,8652
2017-05-12T08:59:17.955Z,8536
2017-05-12T09:00:28.007Z,8552
2017-05-12T09:01:38.120Z,8452
2017-05-12T09:02:48.483Z,8168
2017-05-12T09:03:58.886Z,8412
2017-05-12T09:05:09.252Z,8624
2017-05-12T09:06:19.614Z,8800
2017-05-12T09:07:30.000Z,8928
2017-05-12T09:08:40.352Z,9136
2017-05-12T09:09:50.718Z,7788
2017-05-12T09:11:01.099Z,7492
2017-05-12T09:12:11.458Z,9080
2017-05-12T09:13:41.020Z,9636
2017-05-12T09:14:51.384Z,9844
2017-05-12T09:16:01.745Z,7020
2017-05-12T09:17:12.401Z,7748
2017-05-12T09:18:22.627Z,6848
2017-05-12T09:19:33.037Z,8024
2017-05-12T09:20:43.505Z,7672
2017-05-12T09:21:53.939Z,7732
2017-05-12T09:23:04.379Z,8104
2017-05-12T09:24:14.426Z,8404
2017-05-12T09:25:24.158Z,8340
2017-05-12T09:26:34.516Z,7920
2017-05-12T09:27:44.590Z,10652
2017-05-12T09:28:54.962Z,11768
2017-05-12T09:30:05.341Z,10560
2017-05-12T09:31:15.746Z,11908
2017-05-12T09:32:25.826Z,11512
2017-05-12T09:33:36.192Z,11848
2017-05-12T09:34:46.571Z,11292
2017-05-12T09:35:56.945Z,8948
2017-05-12T09:37:07.310Z,9428
2017-05-12T09:38:17.685Z,10760
2017-05-12T09:39:27.432Z,11740
2017-05-12T09:40:37.814Z,11948
2017-05-12T09:41:48.168Z,11924
2017-05-12T09:42:58.527Z,10876
2017-05-12T09:44:08.270Z,10600
2017-05-12T09:45:18.340Z,11800
2017-05-12T09:46:28.085Z,11484
2017-05-12T09:47:38.156Z,11012
2017-05-12T09:48:48.516Z,11232
2017-05-12T09:49:58.880Z,10272
2017-05-12T09:51:09.248Z,9160
2017-05-12T09:52:19.305Z,9668
2017-05-12T09:53:29.353Z,10544
2017-05-12T09:54:39.719Z,9836
2017-05-12T09:55:49.769Z,9272
2017-05-12T09:56:59.838Z,9728
2017-05-12T09:58:10.211Z,10004
2017-05-12T09:59:20.608Z,9964
2017-05-12T10:00:30.996Z,9924
2017-05-12T10:01:41.048Z,9992
2017-05-12T10:02:51.430Z,10072
2017-05-12T10:04:01.192Z,10292
2017-05-12T10:05:11.554Z,10304
2017-05-12T10:06:21.605Z,10492
2017-05-12T10:07:31.985Z,10576
2017-05-12T10:08:42.051Z,10396
2017-05-12T10:09:52.453Z,10308
2017-05-12T10:11:02.522Z,10112
2017-05-12T10:12:12.581Z,9600
2017-05-12T10:13:22.939Z,9476
2017-05-12T10:14:33.286Z,9456
2017-05-12T10:15:43.654Z,9656
2017-05-12T10:16:54.001Z,9620
2017-05-12T10:18:04.045Z,9484
2017-05-12T10:19:14.424Z,9252
2017-05-12T10:20:24.813Z,9260
2017-05-12T10:21:34.875Z,9516
2017-05-12T10:22:45.257Z,9480
2017-05-12T10:23:55.607Z,9336
2017-05-12T10:25:05.968Z,9404
2017-05-12T10:26:16.323Z,9468
2017-05-12T10:27:26.382Z,9548
2017-05-12T10:28:36.429Z,9572
2017-05-12T10:29:46.500Z,9696
2017-05-12T10:30:56.539Z,9764
2017-05-12T10:32:06.603Z,9800
2017-05-12T10:33:16.664Z,9796
2017-05-12T10:34:27.045Z,9768
2017-05-12T10:35:37.406Z,9760
2017-05-12T10:36:47.771Z,9800
2017-05-12T10:37:58.153Z,9828
2017-05-12T10:39:08.535Z,9928
2017-05-12T10:40:18.595Z,10156
2017-05-12T10:41:28.968Z,10420
2017-05-12T10:42:39.355Z,10772
2017-05-12T10:43:49.762Z,10868
2017-05-12T10:44:59.826Z,10552
2017-05-12T10:46:10.216Z,10772
2017-05-12T10:47:20.271Z,11232
2017-05-12T10:48:30.653Z,11824
2017-05-12T10:49:41.037Z,12248
2017-05-12T10:50:51.388Z,11892
2017-05-12T10:52:01.750Z,12084
2017-05-12T10:53:11.565Z,11568
2017-05-12T10:54:21.638Z,10620
2017-05-12T10:55:32.016Z,11812
2017-05-12T10:56:42.111Z,12128
2017-05-12T10:57:52.211Z,11080
2017-05-12T10:59:02.654Z,8384
2017-05-12T11:00:13.015Z,7656
2017-05-12T11:01:23.397Z,7620
2017-05-12T11:02:33.782Z,8632
2017-05-12T11:03:44.150Z,9372
2017-05-12T11:04:54.555Z,9112
2017-05-12T11:06:04.920Z,7332
2017-05-12T11:07:15.293Z,7624
2017-05-12T11:08:25.353Z,6064
2017-05-12T11:09:35.714Z,5644
2017-05-12T11:10:46.063Z,5396
2017-05-12T11:11:56.419Z,5136
2017-05-12T11:13:06.784Z,5208
2017-05-12T11:14:16.841Z,5412
2017-05-12T11:15:26.604Z,5144
2017-05-12T11:16:36.664Z,5288
2017-05-12T11:17:46.718Z,5312
2017-05-12T11:18:57.117Z,5004
2017-05-12T11:20:07.182Z,4824
2017-05-12T11:21:17.544Z,4944
2017-05-12T11:22:27.911Z,5248
2017-05-12T11:23:37.958Z,5536
2017-05-12T11:24:48.319Z,5868
2017-05-12T11:25:58.682Z,6228
2017-05-12T11:27:09.068Z,11780
2017-05-12T11:28:19.128Z,6692
2017-05-12T11:29:29.509Z,7200
2017-05-12T11:30:39.870Z,8000
2017-05-12T11:31:49.957Z,8868
2017-05-12T11:33:00.319Z,7052
2017-05-12T11:34:10.379Z,6560
2017-05-12T11:35:20.101Z,7308
2017-05-12T11:36:30.473Z,6472
2017-05-12T11:37:40.839Z,6644
2017-05-12T11:38:51.254Z,6812
2017-05-12T11:40:01.316Z,7552
2017-05-12T11:41:11.381Z,7592
2017-05-12T11:42:21.791Z,11280
2017-05-12T11:43:32.162Z,7976
2017-05-12T11:44:42.543Z,7688
2017-05-12T11:45:52.603Z,7804
2017-05-12T11:47:02.637Z,7972
2017-05-12T11:48:12.991Z,8140
2017-05-12T11:49:23.085Z,8272
2017-05-12T11:50:33.441Z,8452
2017-05-12T11:51:43.804Z,8716
2017-05-12T11:52:53.861Z,8920
2017-05-12T11:54:04.225Z,9044
2017-05-12T11:55:14.806Z,9152
2017-05-12T11:56:24.895Z,9132
2017-05-12T11:57:35.280Z,9128
2017-05-12T11:58:45.700Z,9112
2017-05-12T11:59:56.049Z,9028
2017-05-12T12:01:06.120Z,8924
2017-05-12T12:02:16.171Z,8860
2017-05-12T12:03:26.522Z,8816
2017-05-12T12:04:36.889Z,8864
2017-05-12T12:05:46.633Z,8920
2017-05-12T12:06:57.244Z,9100
2017-05-12T12:08:07.635Z,9364
2017-05-12T12:09:17.991Z,9520
2017-05-12T12:10:28.424Z,9516
2017-05-12T12:11:38.889Z,9508
2017-05-12T12:12:48.627Z,9492
2017-05-12T12:13:58.986Z,9372
2017-05-12T12:15:09.356Z,9192
2017-05-12T12:16:19.730Z,9120
2017-05-12T12:17:29.783Z,9084
2017-05-12T12:18:39.843Z,9100
2017-05-12T12:19:50.234Z,9220
2017-05-12T12:21:00.596Z,9376
2017-05-12T12:22:10.991Z,9528
2017-05-12T12:23:21.362Z,9628
2017-05-12T12:24:31.735Z,9716
2017-05-12T12:25:42.082Z,9708
2017-05-12T12:26:52.451Z,9496
2017-05-12T12:28:02.503Z,9212
2017-05-12T12:29:12.914Z,8844
2017-05-12T12:30:23.299Z,8676
2017-05-12T12:31:33.656Z,8684
2017-05-12T12:32:43.458Z,8864
2017-05-12T12:33:53.537Z,9236
2017-05-12T12:35:03.911Z,9432
2017-05-12T12:36:14.283Z,9536
2017-05-12T12:37:24.676Z,9720
2017-05-12T12:38:34.741Z,10552
2017-05-12T12:39:44.816Z,11868
2017-05-12T12:40:54.565Z,15168
2017-05-12T12:42:04.320Z,15712
2017-05-12T12:43:14.695Z,14312
2017-05-12T12:44:25.073Z,12464
2017-05-12T12:45:35.459Z,10896
2017-05-12T12:46:45.836Z,9220
2017-05-12T12:47:56.200Z,8636
2017-05-12T12:49:06.256Z,8168
2017-05-12T12:50:16.622Z,8136
2017-05-12T12:51:26.996Z,8616
2017-05-12T12:52:37.360Z,9396
2017-05-12T12:53:47.718Z,8124
2017-05-12T12:54:58.104Z,7348
2017-05-12T12:56:08.467Z,6896
2017-05-12T12:57:18.519Z,7832
2017-05-12T12:58:28.894Z,6504
2017-05-12T12:59:39.255Z,6488
2017-05-12T13:00:49.649Z,6124
2017-05-12T13:02:00.048Z,7196
2017-05-12T13:03:10.414Z,7240
2017-05-12T13:04:20.475Z,6368
2017-05-12T13:05:30.527Z,6444
2017-05-12T13:06:40.580Z,7096
2017-05-12T13:07:50.630Z,6172
2017-05-12T13:09:00.699Z,6492
2017-05-12T13:10:11.075Z,10368
2017-05-12T13:11:21.446Z,10316
2017-05-12T13:12:31.886Z,6296
2017-05-12T13:13:41.935Z,7472
2017-05-12T13:14:52.316Z,10392
2017-05-12T13:16:02.703Z,6872
2017-05-12T13:17:13.088Z,6300
2017-05-12T13:18:23.145Z,7168
2017-05-12T13:19:33.533Z,9136
2017-05-12T13:20:43.921Z,8756
2017-05-12T13:21:54.335Z,8668
2017-05-12T13:23:04.394Z,8352
2017-05-12T13:24:14.761Z,8124
2017-05-12T13:25:25.133Z,8024
2017-05-12T13:26:35.506Z,7944
2017-05-12T13:27:45.569Z,7796
2017-05-12T13:28:55.627Z,7680
2017-05-12T13:30:05.991Z,7588
2017-05-12T13:31:16.450Z,7524
2017-05-12T13:32:26.196Z,7532
2017-05-12T13:33:36.252Z,7508
2017-05-12T13:34:46.290Z,7536
2017-05-12T13:35:56.668Z,7512
2017-05-12T13:37:06.719Z,7592
2017-05-12T13:38:16.778Z,7620
2017-05-12T13:39:27.145Z,7580
2017-05-12T13:40:37.511Z,7576
2017-05-12T13:41:47.567Z,7644
2017-05-12T13:42:57.332Z,7764
2017-05-12T13:44:07.708Z,6916
2017-05-12T13:45:18.089Z,3628
2017-05-12T13:46:28.501Z,3484
2017-05-12T13:47:38.882Z,3532
2017-05-12T13:48:49.231Z,3820
2017-05-12T13:49:59.610Z,5424
2017-05-12T13:51:10.026Z,3808
2017-05-12T13:52:20.074Z,3632
2017-05-12T13:53:30.442Z,3636
2017-05-12T13:54:40.803Z,3732
2017-05-12T13:55:51.177Z,3972
2017-05-12T13:57:01.557Z,7084
2017-05-12T13:58:11.937Z,8448
2017-05-12T13:59:22.315Z,5588
2017-05-12T14:00:32.702Z,3840
2017-05-12T14:01:43.123Z,3872
2017-05-12T14:02:53.501Z,7936
2017-05-12T14:04:03.892Z,7976
2017-05-12T14:05:14.272Z,6500
2017-05-12T14:06:24.684Z,4112
2017-05-12T14:07:35.055Z,4244
2017-05-12T14:08:45.429Z,4340
2017-05-12T14:09:55.810Z,4184
2017-05-12T14:11:05.875Z,4032
2017-05-12T14:12:16.254Z,4028
2017-05-12T14:13:26.639Z,4032
2017-05-12T14:14:37.051Z,4004
2017-05-12T14:15:46.798Z,3988
2017-05-12T14:16:56.864Z,3996
2017-05-12T14:18:07.235Z,3952
2017-05-12T14:19:17.610Z,3956
2017-05-12T14:20:27.340Z,4124
2017-05-12T14:21:37.411Z,4296
2017-05-12T14:22:47.793Z,4432
2017-05-12T14:23:58.163Z,4452
2017-05-12T14:25:08.524Z,4324
2017-05-12T14:26:18.890Z,4164
2017-05-12T14:27:29.247Z,4088
2017-05-12T14:28:39.847Z,4060
2017-05-12T14:29:50.214Z,4164
2017-05-12T14:31:00.587Z,4348
2017-05-12T14:32:10.956Z,4524
2017-05-12T14:33:21.326Z,4756
2017-05-12T14:34:31.386Z,4832
2017-05-12T14:35:41.771Z,4844
2017-05-12T14:36:52.138Z,4808
2017-05-12T14:38:02.541Z,4816
2017-05-12T14:39:11.974Z,5084
2017-05-12T14:40:21.726Z,6732
2017-05-12T14:41:31.787Z,8276
2017-05-12T14:42:42.177Z,6996
2017-05-12T14:43:52.244Z,8184
2017-05-12T14:45:02.632Z,5012
2017-05-12T14:46:13.004Z,5040
2017-05-12T14:47:23.382Z,5212
2017-05-12T14:48:33.466Z,5304
2017-05-12T14:49:44.050Z,5396
2017-05-12T14:50:54.120Z,5316
2017-05-12T14:52:04.502Z,5200
2017-05-12T14:53:14.867Z,4904
2017-05-12T14:54:25.243Z,4556
2017-05-12T14:55:35.620Z,4300
2017-05-12T14:56:45.386Z,4132
2017-05-12T14:57:55.763Z,3932
2017-05-12T14:59:06.138Z,3720
2017-05-12T15:00:16.205Z,3444
2017-05-12T15:01:26.273Z,3256
2017-05-12T15:02:36.337Z,3156
2017-05-12T15:03:46.085Z,3128
2017-05-12T15:04:56.483Z,3156
2017-05-12T15:06:06.851Z,3224
2017-05-12T15:07:17.212Z,3224
2017-05-12T15:08:27.274Z,3236
2017-05-12T15:09:37.677Z,3336
2017-05-12T15:10:48.052Z,3440
2017-05-12T15:11:57.798Z,3588
2017-05-12T15:13:07.849Z,3720
2017-05-12T15:14:18.241Z,3884
2017-05-12T15:15:28.596Z,4100
2017-05-12T15:16:38.960Z,4660
2017-05-12T15:17:49.338Z,6100
2017-05-12T15:18:59.716Z,6096
2017-05-12T15:20:09.782Z,7268
2017-05-12T15:21:19.829Z,7508
2017-05-12T15:22:29.887Z,7360
2017-05-12T15:23:39.643Z,6868
2017-05-12T15:24:49.718Z,6672
2017-05-12T15:25:59.456Z,6652
2017-05-12T15:27:09.535Z,6544
2017-05-12T15:28:19.887Z,6072
2017-05-12T15:29:29.930Z,5832
2017-05-12T15:30:39.967Z,5196
2017-05-12T15:31:50.036Z,4348
2017-05-12T15:33:00.425Z,3968
2017-05-12T15:34:10.798Z,3772
2017-05-12T15:35:21.196Z,3584
2017-05-12T15:36:31.574Z,3524
2017-05-12T15:37:41.958Z,3448
2017-05-12T15:38:52.025Z,3352
2017-05-12T15:40:02.135Z,3552
2017-05-12T15:41:12.522Z,3996
2017-05-12T15:42:22.904Z,4780
2017-05-12T15:43:33.297Z,5404
2017-05-12T15:44:43.561Z,5708
2017-05-12T15:45:53.619Z,6032
2017-05-12T15:47:03.986Z,5392
2017-05-12T15:48:14.362Z,5964
2017-05-12T15:49:24.422Z,5936
2017-05-12T15:50:34.796Z,4444
2017-05-12T15:51:44.873Z,4028
2017-05-12T15:52:55.247Z,3604
2017-05-12T15:54:05.636Z,3372
2017-05-12T15:55:16.003Z,3220
2017-05-12T15:56:26.345Z,3088
2017-05-12T15:57:36.729Z,2976
2017-05-12T15:58:46.978Z,2820
2017-05-12T15:59:57.346Z,2592
2017-05-12T16:01:07.412Z,2328
2017-05-12T16:02:17.194Z,2132
2017-05-12T16:03:27.551Z,1996
2017-05-12T16:04:37.623Z,1900
2017-05-12T16:05:47.996Z,1832
2017-05-12T16:06:58.057Z,1764
2017-05-12T16:08:08.410Z,1724
2017-05-12T16:09:18.969Z,1672
2017-05-12T16:10:29.044Z,1640
2017-05-12T16:11:39.437Z,1596
2017-05-12T16:12:49.810Z,1564
2017-05-12T16:13:59.887Z,1536
2017-05-12T16:15:10.263Z,1508
2017-05-12T16:16:20.663Z,1488
2017-05-12T16:17:30.399Z,1488
2017-05-12T16:18:40.487Z,1480
2017-05-12T16:19:50.826Z,1484
2017-05-12T16:21:00.873Z,1488
2017-05-12T16:22:11.237Z,1496
2017-05-12T16:23:21.604Z,1504
2017-05-12T16:24:31.668Z,1520
2017-05-12T16:25:41.769Z,1544
2017-05-12T16:26:52.126Z,1596
2017-05-12T16:28:02.204Z,1660
2017-05-12T16:29:12.595Z,1724
2017-05-12T16:30:22.954Z,1800
2017-05-12T16:31:33.343Z,1888
2017-05-12T16:32:43.712Z,1988
2017-05-12T16:33:53.804Z,2092
2017-05-12T16:35:04.176Z,2136
2017-05-12T16:36:14.216Z,2152
2017-05-12T16:37:23.965Z,2160
2017-05-12T16:38:34.021Z,2164
2017-05-12T16:39:44.411Z,2160
2017-05-12T16:40:54.814Z,2160
2017-05-12T16:42:05.191Z,2148
2017-05-12T16:43:15.568Z,2140
2017-05-12T16:44:25.621Z,2136
2017-05-12T16:45:35.988Z,2168
2017-05-12T16:46:46.224Z,2172
2017-05-12T16:47:56.557Z,2352
2017-05-12T16:49:06.268Z,2148
2017-05-12T16:50:16.677Z,2128
2017-05-12T16:51:27.051Z,2112
2017-05-12T16:52:37.110Z,2120
2017-05-12T16:53:47.489Z,2060
2017-05-12T16:54:57.860Z,2004
2017-05-12T16:56:08.432Z,1964
2017-05-12T16:57:18.796Z,1916
2017-05-12T16:58:29.171Z,1872
2017-05-12T16:59:39.272Z,1824
2017-05-12T17:00:49.649Z,1792
2017-05-12T17:01:59.720Z,1756
2017-05-12T17:03:10.098Z,1736
2017-05-12T17:04:20.167Z,1720